WAT4855 KMEM-KEWR
Flight info
| Callsign | WAT4855 |
|---|---|
| Flight time | N/A |
| Altitude | 35000 |
| Route | GOETZ7 DIYAB HITMN Q34 GVE PHLBO4 |
| Aircraft | MD11/H-SDE1E2E3FGHIJ2J3J4J5M1RWXY/LB1D1 |
Departure
| Time | 2026-05-01 15:16 |
|---|---|
| Airport | Memphis International Airport (KMEM) |
Arrival
| Time | N/A |
|---|---|
| Airport | Newark Liberty International Airport (KEWR) |
| Time | Latitude | Longitude | Altitude | Speed | Heading |
|---|---|---|---|---|---|
| 2026-05-01 14:33 | 35.06285 | -89.98158 | 285 ft | 0 kts | 180° |
| 2026-05-01 14:59 | 35.06288 | -89.98158 | 284 ft | 3 kts | 180° |
| 2026-05-01 15:00 | 35.06341 | -89.98156 | 285 ft | 3 kts | 182° |
| 2026-05-01 15:00 | 35.06359 | -89.98156 | 282 ft | 4 kts | 135° |
| 2026-05-01 15:00 | 35.06364 | -89.98167 | 283 ft | 5 kts | 82° |
| 2026-05-01 15:01 | 35.06360 | -89.98200 | 285 ft | 5 kts | 89° |
| 2026-05-01 15:01 | 35.06360 | -89.98206 | 283 ft | 4 kts | 91° |
| 2026-05-01 15:03 | 35.06360 | -89.98202 | 283 ft | 2 kts | 91° |
| 2026-05-01 15:04 | 35.06359 | -89.98163 | 282 ft | 6 kts | 92° |
| 2026-05-01 15:04 | 35.06357 | -89.98100 | 280 ft | 10 kts | 92° |
| 2026-05-01 15:04 | 35.06355 | -89.98006 | 281 ft | 10 kts | 92° |
| 2026-05-01 15:04 | 35.06352 | -89.97921 | 282 ft | 9 kts | 91° |
| 2026-05-01 15:05 | 35.06351 | -89.97851 | 283 ft | 9 kts | 91° |
| 2026-05-01 15:05 | 35.06339 | -89.97798 | 287 ft | 5 kts | 133° |
| 2026-05-01 15:05 | 35.06313 | -89.97791 | 285 ft | 4 kts | 174° |
| 2026-05-01 15:05 | 35.06282 | -89.97789 | 288 ft | 5 kts | 178° |
| 2026-05-01 15:06 | 35.06244 | -89.97788 | 293 ft | 6 kts | 179° |
| 2026-05-01 15:06 | 35.06199 | -89.97787 | 296 ft | 7 kts | 179° |
| 2026-05-01 15:06 | 35.06151 | -89.97785 | 300 ft | 7 kts | 179° |
| 2026-05-01 15:06 | 35.06097 | -89.97785 | 303 ft | 8 kts | 180° |
| 2026-05-01 15:07 | 35.06037 | -89.97785 | 307 ft | 9 kts | 179° |
| 2026-05-01 15:07 | 35.05964 | -89.97784 | 310 ft | 12 kts | 179° |
| 2026-05-01 15:07 | 35.05868 | -89.97784 | 313 ft | 16 kts | 180° |
| 2026-05-01 15:07 | 35.05741 | -89.97784 | 316 ft | 20 kts | 180° |
| 2026-05-01 15:08 | 35.05595 | -89.97783 | 324 ft | 20 kts | 180° |
| 2026-05-01 15:08 | 35.05454 | -89.97782 | 330 ft | 21 kts | 177° |
| 2026-05-01 15:08 | 35.05312 | -89.97764 | 327 ft | 20 kts | 171° |
| 2026-05-01 15:08 | 35.05169 | -89.97757 | 323 ft | 21 kts | 181° |
| 2026-05-01 15:09 | 35.05025 | -89.97759 | 321 ft | 20 kts | 180° |
| 2026-05-01 15:09 | 35.04891 | -89.97756 | 322 ft | 18 kts | 179° |
| 2026-05-01 15:09 | 35.04766 | -89.97753 | 320 ft | 18 kts | 178° |
| 2026-05-01 15:09 | 35.04650 | -89.97747 | 321 ft | 17 kts | 180° |
| 2026-05-01 15:10 | 35.04527 | -89.97747 | 322 ft | 19 kts | 180° |
| 2026-05-01 15:10 | 35.04225 | -89.97741 | 322 ft | 21 kts | 179° |
| 2026-05-01 15:10 | 35.04085 | -89.97738 | 322 ft | 20 kts | 179° |
| 2026-05-01 15:11 | 35.03946 | -89.97735 | 316 ft | 20 kts | 179° |
| 2026-05-01 15:11 | 35.03666 | -89.97729 | 313 ft | 20 kts | 178° |
| 2026-05-01 15:11 | 35.03525 | -89.97726 | 306 ft | 21 kts | 181° |
| 2026-05-01 15:12 | 35.03388 | -89.97726 | 309 ft | 18 kts | 179° |
| 2026-05-01 15:12 | 35.03187 | -89.97723 | 310 ft | 8 kts | 193° |
| 2026-05-01 15:12 | 35.03162 | -89.97760 | 309 ft | 5 kts | 256° |
| 2026-05-01 15:13 | 35.03130 | -89.97819 | 313 ft | 5 kts | 191° |
| 2026-05-01 15:14 | 35.02967 | -89.97815 | 314 ft | 17 kts | 180° |
| 2026-05-01 15:14 | 35.02835 | -89.97814 | 313 ft | 20 kts | 178° |
| 2026-05-01 15:14 | 35.02570 | -89.97806 | 311 ft | 18 kts | 180° |
| 2026-05-01 15:15 | 35.02417 | -89.97764 | 308 ft | 8 kts | 106° |
| 2026-05-01 15:15 | 35.02441 | -89.97561 | 305 ft | 9 kts | 31° |
| 2026-05-01 15:16 | 35.02948 | -89.97566 | 309 ft | 102 kts | 359° |
| 2026-05-01 15:16 | 35.05083 | -89.97628 | 993 ft | 174 kts | 358° |
| 2026-05-01 15:17 | 35.07576 | -89.97318 | 2205 ft | 204 kts | 24° |
| 2026-05-01 15:18 | 35.11854 | -89.94414 | 4439 ft | 248 kts | 31° |
| 2026-05-01 15:18 | 35.13198 | -89.93051 | 5399 ft | 256 kts | 47° |
| 2026-05-01 15:19 | 35.14213 | -89.86380 | 7764 ft | 287 kts | 91° |
| 2026-05-01 15:19 | 35.14423 | -89.81445 | 9271 ft | 297 kts | 78° |
| 2026-05-01 15:19 | 35.14797 | -89.78939 | 10031 ft | 303 kts | 77° |
| 2026-05-01 15:20 | 35.15700 | -89.73527 | 10385 ft | 352 kts | 76° |
| 2026-05-01 15:20 | 35.16212 | -89.70499 | 10533 ft | 374 kts | 76° |
| 2026-05-01 15:20 | 35.16746 | -89.67312 | 11082 ft | 380 kts | 77° |
| 2026-05-01 15:21 | 35.17276 | -89.64125 | 11700 ft | 385 kts | 77° |
| 2026-05-01 15:21 | 35.17811 | -89.60907 | 12296 ft | 389 kts | 77° |
| 2026-05-01 15:21 | 35.18353 | -89.57643 | 12890 ft | 394 kts | 77° |
| 2026-05-01 15:21 | 35.18901 | -89.54337 | 13473 ft | 399 kts | 77° |
| 2026-05-01 15:22 | 35.19883 | -89.47642 | 14524 ft | 408 kts | 82° |
| 2026-05-01 15:22 | 35.20176 | -89.44177 | 15054 ft | 412 kts | 84° |
| 2026-05-01 15:22 | 35.20409 | -89.40674 | 15590 ft | 415 kts | 84° |
| 2026-05-01 15:23 | 35.20626 | -89.37135 | 16112 ft | 419 kts | 85° |
| 2026-05-01 15:23 | 35.20844 | -89.33563 | 16640 ft | 423 kts | 85° |
| 2026-05-01 15:23 | 35.21070 | -89.29964 | 17162 ft | 427 kts | 84° |
| 2026-05-01 15:23 | 35.21302 | -89.26328 | 17682 ft | 431 kts | 84° |
| 2026-05-01 15:24 | 35.21620 | -89.22677 | 18144 ft | 434 kts | 79° |
| 2026-05-01 15:24 | 35.22284 | -89.19059 | 18573 ft | 438 kts | 73° |
| 2026-05-01 15:24 | 35.23178 | -89.15485 | 18931 ft | 442 kts | 68° |
| 2026-05-01 15:24 | 35.24337 | -89.11983 | 19307 ft | 446 kts | 63° |
| 2026-05-01 15:25 | 35.25651 | -89.08521 | 19624 ft | 452 kts | 61° |
| 2026-05-01 15:25 | 35.27031 | -89.05034 | 19986 ft | 457 kts | 60° |
| 2026-05-01 15:25 | 35.28422 | -89.01513 | 20343 ft | 462 kts | 60° |
| 2026-05-01 15:25 | 35.29815 | -88.97940 | 20696 ft | 467 kts | 61° |
| 2026-05-01 15:26 | 35.31205 | -88.94319 | 21059 ft | 473 kts | 61° |
| 2026-05-01 15:26 | 35.32599 | -88.90649 | 21424 ft | 478 kts | 61° |
| 2026-05-01 15:26 | 35.33999 | -88.86938 | 21775 ft | 483 kts | 61° |
| 2026-05-01 15:26 | 35.35411 | -88.83181 | 22121 ft | 489 kts | 61° |
| 2026-05-01 15:27 | 35.36837 | -88.79383 | 22485 ft | 494 kts | 61° |
| 2026-05-01 15:27 | 35.38278 | -88.75538 | 22851 ft | 499 kts | 61° |
| 2026-05-01 15:27 | 35.39731 | -88.71660 | 23219 ft | 503 kts | 61° |
| 2026-05-01 15:28 | 35.42657 | -88.63838 | 23896 ft | 513 kts | 61° |
| 2026-05-01 15:28 | 35.44149 | -88.59839 | 24217 ft | 517 kts | 61° |
| 2026-05-01 15:28 | 35.45651 | -88.55811 | 24542 ft | 522 kts | 61° |
| 2026-05-01 15:29 | 35.48687 | -88.47654 | 25196 ft | 530 kts | 61° |
| 2026-05-01 15:29 | 35.50224 | -88.43518 | 25516 ft | 536 kts | 60° |
| 2026-05-01 15:29 | 35.53336 | -88.35124 | 26152 ft | 544 kts | 61° |
| 2026-05-01 15:30 | 35.56489 | -88.26600 | 26801 ft | 553 kts | 61° |
| 2026-05-01 15:31 | 35.62884 | -88.09114 | 28063 ft | 569 kts | 61° |
| 2026-05-01 15:31 | 35.66150 | -88.00184 | 28758 ft | 576 kts | 61° |
| 2026-05-01 15:32 | 35.69465 | -87.91124 | 29377 ft | 585 kts | 61° |
| 2026-05-01 15:32 | 35.72785 | -87.82024 | 29975 ft | 592 kts | 61° |
| 2026-05-01 15:33 | 35.77868 | -87.68025 | 31064 ft | 600 kts | 61° |
| 2026-05-01 15:34 | 35.82984 | -87.53870 | 32128 ft | 605 kts | 61° |